Roslyn, Pennsylvania
Current Conditions -  °F | °C
As of 7:54 AM on Thursday 23 Oct 2014 (Local Time) from KPNE Reporting Station
Light Rain Light Rain  
Wind Chill: 51°   Ceiling: 3700
Heat Index: 51°   Visibility: 4mi
Dew Point: 45°   Wind: 13mph
Humidity: 80%   Direction: 320°NW
Pressure: 29.77"   Gusts: NA
Location:  40.1251°N, 75.1282°W
Report Text: KPNE 231154Z AUTO 32011KT 4SM -RA FEW019 OVC037 11/07 A2977 RMK AO2 SLP079 P0004 60007 70068 T01060072 10122 20106 50003 TSNO $
Loading
Personal Weather Stations






























Interactive Weather Map
Tropical Storm Tracking
New forecast layout! Learn more

10-Day Weather Forecast

Advertisements
Track Severe Weather on mobile